Aviation Digital Data Service (ADDS)

Output produced by METARs form (0913 UTC 19 April 2019)
found at http://www.aviationweather.gov/metar/data/
 
Forecast for: PHOG (KAHULUI , HI, US)
Text: PHOG 190520Z 1906/2006 06012KT P6SM FEW030 SCT040
Forecast period: 0600 to 2000 UTC 19 April 2019
Forecast type: FROM: standard forecast or significant change
Winds: from the ENE (60 degrees) at 14 MPH (12 knots; 6.2 m/s)
Visibility: 6 or more miles 10+ km)
Ceiling: at least 12,000 feet AGL
Clouds: few clouds at 3000 feet AGL
scattered clouds at 4000 feet AGL
Weather: no significant weather forecast for this period
Text: FM192000 06016G24KT P6SM FEW035 SCT050 AMD LTD TO VIS AND WIND 1909/1916
Forecast period: 2000 UTC 19 April 2019 to 0600 UTC 20 April 2019
Forecast type: FROM: standard forecast or significant change
Winds: from the ENE (60 degrees) at 18 MPH (16 knots; 8.2 m/s)
gusting to 28 MPH (24 knots; 12.3 m/s)
Visibility: 6 or more miles 10+ km)
Ceiling: at least 12,000 feet AGL
Clouds: few clouds at 3500 feet AGL
scattered clouds at 5000 feet AGL
Weather: no significant weather forecast for this period